»·PEaware :: N8665R KLAX-KSAN

N8665R :: KLAX-KSAN

FLIGHT INFORMATION

Flight Status: Arrived
Operator: Privately registered:
United States
More flights under this callsign
Pilot: Mitchell F. (26966)
Aircraft: PIPER PA-24 COMMANCHE
(PA24)
More flights by this aircraft type
Origin: KLAX Los Angeles Intl
United States
Destination: KSAN San Diego Intl-Lindbergh
United States
More flights between these airports :: More routes between these airports
Route: +
File this flight plan on PilotEdge
Remarks: TEC LAXP63
Altitude:
(Current/Filed)
5,000ft
Speed:
(Current/Filed)
155kts
Departed: 08-Aug-20 12:02 PM
Arrived: 08-Aug-20 12:59 PM
Distance/Time
Traveled:
95nm/0:57
Distance/Time
To Go:
Arrived

Flight Plot

Page will automatically refresh every two minutes.


Map Options




Map Legend


Flown Route
Filed Route
Departure Airport
Arrival Airport
Navaid (VOR, NDB)
Fix

Horizontal Profiles

Position Reports

Time Latitude Longitude Heading Altitude Ground
Speed
08-Aug-20 11:37 33.941811 -118.394097 267 129ft 0kts
08-Aug-20 11:38 33.941811 -118.394097 267 129ft 0kts
08-Aug-20 11:39 33.941811 -118.394097 267 129ft 0kts
08-Aug-20 11:40 33.941811 -118.394098 267 129ft 0kts
08-Aug-20 11:41 33.941810 -118.394101 267 129ft 0kts
08-Aug-20 11:42 33.941810 -118.394104 267 129ft 0kts
08-Aug-20 11:43 33.941810 -118.394108 267 129ft 0kts
08-Aug-20 11:44 33.941810 -118.394111 267 129ft 0kts
08-Aug-20 11:45 33.941810 -118.394114 267 129ft 0kts
08-Aug-20 11:46 33.941810 -118.394117 267 129ft 0kts
08-Aug-20 11:47 33.941810 -118.394121 267 129ft 0kts
08-Aug-20 11:48 33.941810 -118.394124 267 129ft 0kts
08-Aug-20 11:49 33.941809 -118.394128 267 129ft 0kts
08-Aug-20 11:50 33.941809 -118.394139 267 129ft 0kts
08-Aug-20 11:51 33.941504 -118.394158 170 129ft 0kts
08-Aug-20 11:52 33.941497 -118.394156 170 129ft 0kts
08-Aug-20 11:53 33.941417 -118.393331 88 129ft 14kts
08-Aug-20 11:54 33.940615 -118.389903 85 129ft 17kts
08-Aug-20 11:55 33.941133 -118.384200 83 129ft 14kts
08-Aug-20 11:56 33.940311 -118.383272 171 129ft 0kts
08-Aug-20 11:57 33.940307 -118.383271 171 129ft 0kts
08-Aug-20 11:58 33.940304 -118.383271 171 129ft 0kts
08-Aug-20 11:59 33.940301 -118.383270 171 129ft 0kts
08-Aug-20 12:00 33.940298 -118.383269 171 129ft 0kts
08-Aug-20 12:01 33.939045 -118.388499 263 163ft 85kts
08-Aug-20 12:02 33.936937 -118.420439 267 1309ft 104kts
08-Aug-20 12:03 33.922231 -118.446636 172 2178ft 123kts
08-Aug-20 12:04 33.885983 -118.451652 191 2581ft 146kts
08-Aug-20 12:05 33.844320 -118.451125 156 2571ft 159kts
08-Aug-20 12:06 33.807261 -118.422083 151 2392ft 157kts
08-Aug-20 12:07 33.770919 -118.394167 143 2464ft 158kts
08-Aug-20 12:08 33.740292 -118.355921 133 2541ft 156kts
08-Aug-20 12:09 33.725650 -118.307189 99 2464ft 157kts
08-Aug-20 12:10 33.716307 -118.256365 113 2515ft 155kts
08-Aug-20 12:11 33.698688 -118.208906 114 2484ft 156kts
08-Aug-20 12:12 33.681543 -118.161908 113 2972ft 153kts
08-Aug-20 12:13 33.664708 -118.115053 114 3723ft 149kts
08-Aug-20 12:14 33.648255 -118.073535 117 5204ft 122kts
08-Aug-20 12:15 33.629693 -118.034257 122 5830ft 155kts
08-Aug-20 12:16 33.607062 -117.988047 116 6008ft 160kts
08-Aug-20 12:17 33.588530 -117.938619 116 5827ft 162kts
08-Aug-20 12:18 33.566606 -117.891605 121 5701ft 161kts
08-Aug-20 12:19 33.545822 -117.846041 116 5587ft 161kts
08-Aug-20 12:20 33.528019 -117.804307 119 5533ft 160kts
08-Aug-20 12:21 33.506674 -117.757474 118 5488ft 158kts
08-Aug-20 12:22 33.486248 -117.708665 119 5492ft 169kts
08-Aug-20 12:23 33.459914 -117.665296 139 5488ft 159kts
08-Aug-20 12:24 33.424337 -117.631724 142 5489ft 167kts
08-Aug-20 12:25 33.390892 -117.595659 135 5486ft 161kts
08-Aug-20 12:26 33.360297 -117.555618 132 5471ft 159kts
08-Aug-20 12:27 33.328198 -117.519351 139 5466ft 159kts
08-Aug-20 12:28 33.296329 -117.482818 134 5465ft 159kts
08-Aug-20 12:29 33.264897 -117.445608 138 5467ft 158kts
08-Aug-20 12:30 33.232747 -117.409422 141 5468ft 158kts
08-Aug-20 12:31 33.193807 -117.385244 141 5438ft 162kts
08-Aug-20 12:32 33.157925 -117.352168 144 5482ft 166kts
08-Aug-20 12:33 33.121199 -117.319317 149 5494ft 167kts
08-Aug-20 12:34 33.081538 -117.292321 151 5499ft 164kts
08-Aug-20 12:35 33.037789 -117.280501 175 5506ft 167kts
08-Aug-20 12:36 32.992611 -117.275870 176 5507ft 162kts
08-Aug-20 12:37 32.949810 -117.271420 176 5033ft 146kts
08-Aug-20 12:38 32.908455 -117.266876 176 3886ft 140kts
08-Aug-20 12:39 32.871322 -117.262893 176 3551ft 129kts
08-Aug-20 12:40 32.835284 -117.256027 156 3611ft 137kts
08-Aug-20 12:41 32.802807 -117.235738 132 3966ft 137kts
08-Aug-20 12:42 32.819092 -117.198814 22 4158ft 147kts
08-Aug-20 12:43 32.857399 -117.192757 312 4602ft 158kts
08-Aug-20 12:44 32.839787 -117.223964 185 4678ft 141kts
08-Aug-20 12:45 32.802916 -117.219116 134 4364ft 136kts
08-Aug-20 12:46 32.794871 -117.176880 95 4201ft 135kts
08-Aug-20 12:47 32.789350 -117.135429 104 4010ft 123kts
08-Aug-20 12:48 32.782342 -117.094462 101 3924ft 127kts
08-Aug-20 12:49 32.775409 -117.052354 103 3931ft 131kts
08-Aug-20 12:50 32.766472 -117.013119 136 3823ft 120kts
08-Aug-20 12:51 32.737321 -117.016077 206 3195ft 106kts
08-Aug-20 12:52 32.708744 -117.030199 202 2249ft 108kts
08-Aug-20 12:53 32.700881 -117.061782 291 1836ft 109kts
08-Aug-20 12:54 32.709933 -117.093508 288 1451ft 99kts
08-Aug-20 12:55 32.717592 -117.125016 287 1162ft 97kts
08-Aug-20 12:56 32.725146 -117.155551 287 684ft 94kts
08-Aug-20 12:57 32.731574 -117.181750 288 30ft 58kts
08-Aug-20 12:58 32.732366 -117.187292 207 18ft 0kts
08-Aug-20 12:59 32.732439 -117.189694 208 18ft 7kts
08-Aug-20 13:00 32.731044 -117.190243 200 18ft 0kts
08-Aug-20 13:02 32.731044 -117.190243 200 18ft 0kts
08-Aug-20 13:03 32.731044 -117.190243 200 18ft 0kts
08-Aug-20 13:04 32.731044 -117.190243 200 18ft 0kts

Navigation Log

Ident Type
Flight plan parsing failed, navigation log unavailable